createdAt,value
2023-07-03T00:00:18.139Z,15.00
2023-07-03T00:02:46.927Z,15.00
2023-07-03T00:05:13.746Z,15.00
2023-07-03T00:07:40.600Z,15.00
2023-07-03T00:10:07.972Z,15.00
2023-07-03T00:12:34.746Z,15.00
2023-07-03T00:15:01.652Z,14.90
2023-07-03T00:17:28.479Z,15.00
2023-07-03T00:19:55.694Z,14.90
2023-07-03T00:22:22.436Z,15.00
2023-07-03T00:24:49.398Z,15.00
2023-07-03T00:27:16.257Z,15.00
2023-07-03T00:29:43.112Z,15.00
2023-07-03T00:32:10.616Z,14.90
2023-07-03T00:34:37.361Z,14.90
2023-07-03T00:37:04.257Z,15.00
2023-07-03T00:39:30.999Z,15.00
2023-07-03T00:41:58.960Z,14.90
2023-07-03T00:44:25.709Z,14.90
2023-07-03T00:46:53.085Z,14.90
2023-07-03T00:49:20.440Z,14.90
2023-07-03T00:51:49.626Z,14.90
2023-07-03T00:54:16.396Z,14.90
2023-07-03T00:56:43.136Z,14.90
2023-07-03T00:59:09.866Z,14.90
2023-07-03T01:01:38.944Z,14.90
2023-07-03T01:04:10.187Z,15.00
2023-07-03T01:06:45.494Z,15.00
2023-07-03T01:09:13.173Z,15.00
2023-07-03T01:11:40.176Z,15.00
2023-07-03T01:14:06.980Z,15.00
2023-07-03T01:16:33.831Z,15.00
2023-07-03T01:19:00.736Z,14.90
2023-07-03T01:21:33.612Z,14.90
2023-07-03T01:24:05.401Z,14.90
2023-07-03T01:26:32.915Z,15.00
2023-07-03T01:29:00.087Z,14.90
2023-07-03T01:31:27.312Z,14.90
2023-07-03T01:33:54.322Z,14.90
2023-07-03T01:36:21.243Z,14.90
2023-07-03T01:38:48.066Z,14.90
2023-07-03T01:41:15.638Z,14.90
2023-07-03T01:43:42.403Z,14.80
2023-07-03T01:46:09.487Z,14.80
2023-07-03T01:48:36.356Z,14.70
2023-07-03T01:51:04.775Z,14.70
2023-07-03T01:53:44.874Z,14.60
2023-07-03T01:56:23.374Z,14.60
2023-07-03T01:59:00.067Z,14.50
2023-07-03T02:02:00.099Z,14.50
2023-07-03T02:04:31.653Z,14.50
2023-07-03T02:06:58.708Z,14.40
2023-07-03T02:09:25.571Z,14.30
2023-07-03T02:11:53.027Z,14.30
2023-07-03T02:14:20.122Z,14.30
2023-07-03T02:16:48.634Z,14.30
2023-07-03T02:19:16.250Z,14.20
2023-07-03T02:21:46.706Z,14.20
2023-07-03T02:24:13.993Z,14.20
2023-07-03T02:26:42.745Z,14.10
2023-07-03T02:29:09.587Z,14.10
2023-07-03T02:31:36.404Z,14.10
2023-07-03T02:34:03.437Z,14.10
2023-07-03T02:36:30.642Z,14.00
2023-07-03T02:38:58.580Z,14.00
2023-07-03T02:41:25.435Z,14.00
2023-07-03T02:43:52.183Z,13.90
2023-07-03T02:46:18.946Z,13.90
2023-07-03T02:48:46.239Z,13.90
2023-07-03T02:51:12.967Z,13.90
2023-07-03T02:53:39.748Z,13.80
2023-07-03T02:56:06.559Z,13.80
2023-07-03T02:58:33.364Z,13.80
2023-07-03T03:01:00.413Z,13.80
2023-07-03T03:03:27.350Z,13.70
2023-07-03T03:05:56.490Z,13.70
2023-07-03T03:08:24.144Z,13.70
2023-07-03T03:10:54.735Z,13.70
2023-07-03T03:13:21.492Z,13.70
2023-07-03T03:15:48.302Z,13.70
2023-07-03T03:18:15.117Z,13.70
2023-07-03T03:20:42.134Z,13.60
2023-07-03T03:23:10.581Z,13.60
2023-07-03T03:25:37.271Z,13.60
2023-07-03T03:28:04.746Z,13.60
2023-07-03T03:30:31.600Z,13.60
2023-07-03T03:32:58.441Z,13.60
2023-07-03T03:35:25.247Z,13.60
2023-07-03T03:37:51.977Z,13.60
2023-07-03T03:40:18.687Z,13.50
2023-07-03T03:42:45.419Z,13.60
2023-07-03T03:45:12.110Z,13.50
2023-07-03T03:47:38.925Z,13.50
2023-07-03T03:50:06.325Z,13.50
2023-07-03T03:52:33.038Z,13.50
2023-07-03T03:55:00.095Z,13.50
2023-07-03T03:57:26.872Z,13.50
2023-07-03T03:59:53.599Z,13.50
2023-07-03T04:02:21.421Z,13.50
2023-07-03T04:04:48.306Z,13.50
2023-07-03T04:07:15.079Z,13.40
2023-07-03T04:09:41.839Z,13.40
2023-07-03T04:12:08.723Z,13.50
2023-07-03T04:14:35.466Z,13.40
2023-07-03T04:17:02.627Z,13.40
2023-07-03T04:19:29.563Z,13.50
2023-07-03T04:21:56.342Z,13.40
2023-07-03T04:24:23.191Z,13.50
2023-07-03T04:26:49.916Z,13.40
2023-07-03T04:29:16.680Z,13.50
2023-07-03T04:31:43.404Z,13.50
2023-07-03T04:34:10.099Z,13.50
2023-07-03T04:36:36.828Z,13.50
2023-07-03T04:39:03.803Z,13.50
2023-07-03T04:41:30.550Z,13.50
2023-07-03T04:43:59.468Z,13.60
2023-07-03T04:46:27.862Z,13.60
2023-07-03T04:49:01.439Z,13.60
2023-07-03T04:51:31.989Z,13.70
2023-07-03T04:54:00.251Z,13.70
2023-07-03T04:56:27.929Z,13.70
2023-07-03T04:58:54.699Z,13.80
2023-07-03T05:01:21.658Z,13.90
2023-07-03T05:03:48.692Z,13.90
2023-07-03T05:06:15.473Z,14.00
2023-07-03T05:08:42.198Z,14.00
2023-07-03T05:11:08.913Z,14.00
2023-07-03T05:13:35.768Z,14.00
2023-07-03T05:16:02.669Z,14.10
2023-07-03T05:18:29.551Z,14.20
2023-07-03T05:20:56.394Z,14.30
2023-07-03T05:23:23.263Z,14.40
2023-07-03T05:25:50.239Z,14.40
2023-07-03T05:28:17.185Z,14.50
2023-07-03T05:30:43.900Z,14.50
2023-07-03T05:33:12.060Z,14.60
2023-07-03T05:35:49.706Z,14.50
2023-07-03T05:38:18.112Z,14.50
2023-07-03T05:40:45.233Z,14.50
2023-07-03T05:43:12.546Z,14.50
2023-07-03T05:45:39.239Z,14.50
2023-07-03T05:48:06.403Z,14.50
2023-07-03T05:50:33.195Z,14.50
2023-07-03T05:52:59.899Z,14.60
2023-07-03T05:55:26.625Z,14.60
2023-07-03T05:57:53.519Z,14.60
2023-07-03T06:00:20.497Z,14.60
2023-07-03T06:02:48.236Z,14.60
2023-07-03T06:05:15.205Z,14.60
2023-07-03T06:07:41.973Z,14.60
2023-07-03T06:10:09.059Z,14.70
2023-07-03T06:12:35.781Z,14.70
2023-07-03T06:15:02.635Z,14.70
2023-07-03T06:17:30.014Z,14.70
2023-07-03T06:19:56.839Z,14.70
2023-07-03T06:22:23.751Z,14.80
2023-07-03T06:24:50.516Z,14.80
2023-07-03T06:27:17.646Z,14.80
2023-07-03T06:29:44.376Z,14.90
2023-07-03T06:32:11.898Z,14.90
2023-07-03T06:34:38.860Z,14.90
2023-07-03T06:37:06.689Z,15.00
2023-07-03T06:39:34.224Z,15.00
2023-07-03T06:42:02.551Z,15.00
2023-07-03T06:44:29.331Z,15.10
2023-07-03T06:46:56.250Z,15.10
2023-07-03T06:49:25.574Z,15.20
2023-07-03T06:51:52.995Z,15.20
2023-07-03T06:54:19.757Z,15.30
2023-07-03T06:56:46.479Z,15.40
2023-07-03T06:59:13.333Z,15.50
2023-07-03T07:01:40.531Z,15.50
2023-07-03T07:04:07.486Z,15.60
2023-07-03T07:06:34.260Z,15.60
2023-07-03T07:09:01.126Z,15.60
2023-07-03T07:11:29.604Z,15.60
2023-07-03T07:13:57.158Z,15.70
2023-07-03T07:16:25.610Z,15.70
2023-07-03T07:18:56.519Z,15.80
2023-07-03T07:21:23.836Z,15.80
2023-07-03T07:23:52.454Z,15.80
2023-07-03T07:26:19.600Z,15.80
2023-07-03T07:28:46.412Z,15.90
2023-07-03T07:31:20.012Z,16.00
2023-07-03T07:33:46.855Z,16.10
2023-07-03T07:36:14.606Z,16.20
2023-07-03T07:38:41.516Z,16.20
2023-07-03T07:41:08.292Z,16.20
2023-07-03T07:43:35.024Z,16.20
2023-07-03T07:46:01.842Z,16.20
2023-07-03T07:48:29.990Z,16.30
2023-07-03T07:50:58.784Z,16.40
2023-07-03T07:53:27.349Z,16.30
2023-07-03T07:55:56.687Z,16.40
2023-07-03T07:58:23.865Z,16.40
2023-07-03T08:00:52.798Z,16.50
2023-07-03T08:03:19.743Z,16.60
2023-07-03T08:05:46.510Z,16.60
2023-07-03T08:08:13.813Z,16.70
2023-07-03T08:10:42.123Z,16.80
2023-07-03T08:13:09.076Z,16.90
2023-07-03T08:15:35.829Z,16.80
2023-07-03T08:18:02.575Z,16.90
2023-07-03T08:20:29.295Z,16.90
2023-07-03T08:22:56.205Z,17.00
2023-07-03T08:25:23.161Z,17.10
2023-07-03T08:27:49.916Z,17.30
2023-07-03T08:30:16.689Z,17.40
2023-07-03T08:32:44.673Z,17.60
2023-07-03T08:37:41.302Z,17.90
2023-07-03T08:40:09.483Z,18.00
2023-07-03T08:42:47.111Z,18.00
2023-07-03T08:45:14.603Z,18.00
2023-07-03T08:47:41.392Z,18.20
2023-07-03T08:50:10.192Z,18.10
2023-07-03T08:52:42.337Z,18.20
2023-07-03T08:55:10.728Z,18.30
2023-07-03T08:57:38.837Z,18.30
2023-07-03T09:00:12.436Z,18.30
2023-07-03T09:02:46.662Z,18.30
2023-07-03T09:05:24.525Z,18.30
2023-07-03T09:07:56.178Z,18.20
2023-07-03T09:10:38.088Z,18.10
2023-07-03T09:13:19.607Z,18.20
2023-07-03T09:15:55.833Z,18.40
2023-07-03T09:18:25.588Z,18.50
2023-07-03T09:20:52.497Z,18.60
2023-07-03T09:23:23.013Z,18.90
2023-07-03T09:26:12.897Z,18.90
2023-07-03T09:28:40.403Z,18.80
2023-07-03T09:31:07.289Z,18.80
2023-07-03T09:33:34.120Z,18.70
2023-07-03T09:36:24.858Z,18.60
2023-07-03T09:38:51.832Z,18.50
2023-07-03T09:41:44.906Z,18.50
2023-07-03T09:44:13.361Z,18.70
2023-07-03T09:46:40.479Z,18.90
2023-07-03T09:49:14.860Z,19.00
2023-07-03T09:51:41.706Z,19.10
2023-07-03T09:54:18.559Z,19.20
2023-07-03T09:56:45.683Z,19.30
2023-07-03T09:59:15.380Z,19.20
2023-07-03T10:07:01.085Z,19.40
2023-07-03T10:12:05.703Z,19.40
2023-07-03T10:14:40.147Z,19.40
2023-07-03T10:17:13.542Z,19.60
2023-07-03T10:19:48.948Z,19.60
2023-07-03T10:22:15.688Z,19.70
2023-07-03T10:24:42.453Z,19.70
2023-07-03T10:27:09.281Z,19.80
2023-07-03T10:29:47.411Z,20.10
2023-07-03T10:32:15.860Z,20.20
2023-07-03T10:34:49.991Z,20.20
2023-07-03T10:37:18.520Z,20.10
2023-07-03T10:40:11.561Z,19.90
2023-07-03T10:42:46.867Z,19.70
2023-07-03T10:45:14.861Z,19.70
2023-07-03T10:47:48.283Z,19.70
2023-07-03T10:50:15.550Z,20.00
2023-07-03T10:52:49.284Z,20.20
2023-07-03T10:55:30.760Z,20.30
2023-07-03T10:58:21.009Z,20.40
2023-07-03T11:01:11.890Z,20.40
2023-07-03T11:03:44.364Z,20.40
2023-07-03T11:06:17.540Z,20.20
2023-07-03T11:08:49.464Z,20.10
2023-07-03T11:11:36.518Z,20.10
2023-07-03T11:14:09.763Z,20.00
2023-07-03T11:16:45.381Z,20.40
2023-07-03T11:19:54.290Z,20.70
2023-07-03T11:25:19.034Z,21.00
2023-07-03T11:28:12.353Z,21.00
2023-07-03T11:30:39.160Z,20.90
2023-07-03T11:33:06.902Z,20.90
2023-07-03T11:40:39.216Z,20.50
2023-07-03T11:43:30.824Z,20.50
2023-07-03T11:45:57.609Z,20.50
2023-07-03T11:48:48.652Z,20.70
2023-07-03T11:51:17.472Z,21.30
2023-07-03T11:53:49.645Z,21.40
2023-07-03T11:56:42.577Z,21.60
2023-07-03T11:59:24.504Z,21.10
2023-07-03T12:01:51.984Z,20.90
2023-07-03T12:04:47.773Z,21.30
2023-07-03T12:07:19.746Z,22.00
2023-07-03T12:09:47.476Z,22.00
2023-07-03T12:12:16.042Z,21.90
2023-07-03T12:14:43.304Z,21.90
2023-07-03T12:17:29.853Z,21.90
2023-07-03T12:20:14.251Z,22.50
2023-07-03T12:22:42.860Z,22.90
2023-07-03T12:25:10.805Z,23.20
2023-07-03T12:27:38.372Z,23.60
2023-07-03T12:30:10.622Z,23.40
2023-07-03T12:32:37.759Z,23.30
2023-07-03T12:35:20.607Z,23.00
2023-07-03T12:37:49.452Z,23.20
2023-07-03T12:40:17.913Z,23.60
2023-07-03T12:42:48.575Z,24.10
2023-07-03T12:45:16.315Z,24.70
2023-07-03T12:47:43.083Z,24.80
2023-07-03T12:50:14.264Z,24.60
2023-07-03T12:52:40.985Z,25.00
2023-07-03T12:55:14.653Z,25.50
2023-07-03T12:57:42.261Z,25.80
2023-07-03T13:00:16.101Z,25.70
2023-07-03T13:02:43.334Z,26.10
2023-07-03T13:05:11.846Z,25.40
2023-07-03T13:07:41.240Z,24.50
2023-07-03T13:10:10.655Z,24.00
2023-07-03T13:12:37.635Z,23.90
2023-07-03T13:15:09.035Z,23.60
2023-07-03T13:17:40.852Z,23.30
2023-07-03T13:20:28.115Z,23.00
2023-07-03T13:23:05.485Z,22.80
2023-07-03T13:25:36.172Z,22.60
2023-07-03T13:28:05.106Z,22.50
2023-07-03T13:30:35.815Z,22.20
2023-07-03T13:33:13.408Z,21.90
2023-07-03T13:35:47.954Z,21.60
2023-07-03T13:38:23.696Z,21.50
2023-07-03T13:40:52.409Z,21.50
2023-07-03T13:43:29.469Z,21.60
2023-07-03T13:45:56.757Z,21.90
2023-07-03T13:48:24.779Z,21.90
2023-07-03T13:50:53.803Z,21.90
2023-07-03T13:53:21.980Z,21.70
2023-07-03T13:55:49.300Z,21.50
2023-07-03T13:58:16.601Z,21.30
2023-07-03T14:00:43.427Z,20.80
2023-07-03T14:03:14.465Z,20.20
2023-07-03T14:05:41.478Z,19.00
2023-07-03T14:08:08.608Z,18.10
2023-07-03T14:10:35.495Z,17.40
2023-07-03T14:13:02.411Z,16.90
2023-07-03T14:15:29.705Z,16.60
2023-07-03T14:17:56.737Z,16.40
2023-07-03T14:20:23.694Z,16.30
2023-07-03T14:22:50.463Z,16.10
2023-07-03T14:25:17.624Z,16.00
2023-07-03T14:27:44.372Z,16.00
2023-07-03T14:30:11.736Z,16.10
2023-07-03T14:32:53.132Z,16.10
2023-07-03T14:35:22.094Z,16.20
2023-07-03T14:37:48.944Z,16.20
2023-07-03T14:40:16.880Z,16.40
2023-07-03T14:42:44.600Z,16.50
2023-07-03T14:45:11.450Z,16.60
2023-07-03T14:47:38.363Z,16.60
2023-07-03T14:50:05.975Z,16.50
2023-07-03T14:52:36.922Z,16.30
2023-07-03T14:55:04.111Z,16.20
2023-07-03T14:57:30.812Z,16.20
2023-07-03T14:59:57.633Z,16.30
2023-07-03T15:02:24.512Z,16.70
2023-07-03T15:04:51.335Z,17.40
2023-07-03T15:07:18.170Z,17.90
2023-07-03T15:09:44.913Z,18.20
2023-07-03T15:12:12.314Z,19.60
2023-07-03T15:14:39.677Z,20.10
2023-07-03T15:17:07.432Z,20.00
2023-07-03T15:19:34.111Z,19.70
2023-07-03T15:22:00.801Z,19.40
2023-07-03T15:24:27.537Z,19.60
2023-07-03T15:26:54.247Z,19.30
2023-07-03T15:29:20.954Z,18.90
2023-07-03T15:31:47.741Z,18.60
2023-07-03T15:34:14.584Z,18.50
2023-07-03T15:36:41.354Z,18.50
2023-07-03T15:39:08.114Z,18.50
2023-07-03T15:41:34.897Z,18.30
2023-07-03T15:44:02.739Z,18.10
2023-07-03T15:46:29.669Z,17.90
2023-07-03T15:48:56.497Z,17.80
2023-07-03T15:51:23.246Z,18.10
2023-07-03T15:53:50.085Z,18.30
2023-07-03T15:56:18.158Z,18.50
2023-07-03T15:58:46.713Z,18.50
2023-07-03T16:01:20.199Z,18.70
2023-07-03T16:03:47.912Z,19.30
2023-07-03T16:06:16.739Z,20.20
2023-07-03T16:08:43.640Z,21.00
2023-07-03T16:11:21.256Z,21.50
2023-07-03T16:13:48.423Z,21.40
2023-07-03T16:16:23.527Z,21.00
2023-07-03T16:18:52.027Z,20.70
2023-07-03T16:21:20.678Z,20.30
2023-07-03T16:23:47.637Z,20.10
2023-07-03T16:26:14.605Z,20.10
2023-07-03T16:28:41.339Z,20.20
2023-07-03T16:31:10.356Z,20.70
2023-07-03T16:33:39.059Z,21.40
2023-07-03T16:36:08.760Z,21.60
2023-07-03T16:38:35.541Z,21.70
2023-07-03T16:41:05.763Z,21.20
2023-07-03T16:43:33.442Z,20.80
2023-07-03T16:46:01.156Z,20.70
2023-07-03T16:48:29.167Z,20.50
2023-07-03T16:50:57.837Z,20.40
2023-07-03T16:53:24.667Z,20.30
2023-07-03T16:55:51.763Z,20.30
2023-07-03T16:58:18.733Z,20.50
2023-07-03T17:00:45.544Z,21.00
2023-07-03T17:03:12.659Z,21.60
2023-07-03T17:05:41.753Z,22.00
2023-07-03T17:08:09.060Z,23.30
2023-07-03T17:10:36.091Z,24.30
2023-07-03T17:13:04.569Z,24.20
2023-07-03T17:15:32.049Z,23.30
2023-07-03T17:17:58.900Z,22.20
2023-07-03T17:20:25.790Z,21.50
2023-07-03T17:22:52.538Z,21.00
2023-07-03T17:25:22.422Z,20.80
2023-07-03T17:27:49.304Z,20.80
2023-07-03T17:30:16.113Z,20.90
2023-07-03T17:32:43.084Z,21.30
2023-07-03T17:35:11.338Z,21.60
2023-07-03T17:37:38.404Z,21.70
2023-07-03T17:40:05.841Z,21.30
2023-07-03T17:42:32.665Z,20.80
2023-07-03T17:44:59.485Z,20.50
2023-07-03T17:47:26.404Z,20.30
2023-07-03T17:49:53.189Z,20.40
2023-07-03T17:52:19.963Z,20.50
2023-07-03T17:54:46.727Z,20.80
2023-07-03T17:57:13.427Z,20.80
2023-07-03T17:59:40.473Z,20.90
2023-07-03T18:02:11.841Z,20.80
2023-07-03T18:04:39.303Z,21.10
2023-07-03T18:07:06.387Z,21.20
2023-07-03T18:09:33.645Z,22.10
2023-07-03T18:12:01.138Z,22.80
2023-07-03T18:14:28.721Z,23.20
2023-07-03T18:16:57.178Z,23.50
2023-07-03T18:19:23.877Z,23.80
2023-07-03T18:21:50.640Z,23.70
2023-07-03T18:24:17.369Z,23.50
2023-07-03T18:26:44.113Z,23.20
2023-07-03T18:29:10.886Z,22.90
2023-07-03T18:31:37.881Z,22.50
2023-07-03T18:34:04.616Z,21.90
2023-07-03T18:36:31.456Z,21.30
2023-07-03T18:39:00.489Z,20.90
2023-07-03T18:41:27.366Z,20.50
2023-07-03T18:43:54.160Z,20.10
2023-07-03T18:46:20.935Z,19.80
2023-07-03T18:48:47.676Z,19.50
2023-07-03T18:51:21.420Z,19.40
2023-07-03T18:53:49.091Z,19.30
2023-07-03T18:56:17.381Z,19.10
2023-07-03T18:58:45.224Z,18.90
2023-07-03T19:01:15.897Z,18.70
2023-07-03T19:03:42.838Z,18.70
2023-07-03T19:06:20.854Z,18.60
2023-07-03T19:08:47.671Z,18.60
2023-07-03T19:11:14.403Z,18.50
2023-07-03T19:13:41.280Z,18.40
2023-07-03T19:16:09.805Z,18.30
2023-07-03T19:18:37.187Z,18.20
2023-07-03T19:21:04.161Z,18.20
2023-07-03T19:23:30.926Z,18.10
2023-07-03T19:25:58.463Z,18.00
2023-07-03T19:28:26.316Z,18.00
2023-07-03T19:30:54.714Z,17.90
2023-07-03T19:33:21.683Z,17.80
2023-07-03T19:35:48.660Z,17.70
2023-07-03T19:38:15.689Z,17.70
2023-07-03T19:40:42.613Z,17.60
2023-07-03T19:43:09.986Z,17.60
2023-07-03T19:45:37.655Z,17.50
2023-07-03T19:48:05.130Z,17.50
2023-07-03T19:50:32.019Z,17.50
2023-07-03T19:52:59.118Z,17.40
2023-07-03T19:55:26.092Z,17.40
2023-07-03T19:57:53.246Z,17.40
2023-07-03T20:00:22.776Z,17.40
2023-07-03T20:02:49.745Z,17.30
2023-07-03T20:05:16.538Z,17.30
2023-07-03T20:07:43.379Z,17.30
2023-07-03T20:10:10.660Z,17.20
2023-07-03T20:12:37.495Z,17.20
2023-07-03T20:15:05.176Z,17.10
2023-07-03T20:17:32.027Z,17.10
2023-07-03T20:19:58.891Z,17.10
2023-07-03T20:22:25.650Z,17.10
2023-07-03T20:24:52.449Z,17.00
2023-07-03T20:27:19.196Z,17.00
2023-07-03T20:29:50.536Z,17.00
2023-07-03T20:32:18.277Z,16.90
2023-07-03T20:34:52.847Z,16.90
2023-07-03T20:37:20.026Z,16.80
2023-07-03T20:39:47.400Z,16.80
2023-07-03T20:42:15.033Z,16.70
2023-07-03T20:44:45.480Z,16.70
2023-07-03T20:47:15.046Z,16.70
2023-07-03T20:49:42.539Z,16.60
2023-07-03T20:52:10.120Z,16.60
2023-07-03T20:54:44.409Z,16.50
2023-07-03T20:57:11.323Z,16.40
2023-07-03T20:59:39.908Z,16.40
2023-07-03T21:02:07.215Z,16.30
2023-07-03T21:04:35.237Z,16.30
2023-07-03T21:07:02.090Z,16.30
2023-07-03T21:09:29.044Z,16.20
2023-07-03T21:11:56.787Z,16.20
2023-07-03T21:14:23.771Z,16.20
2023-07-03T21:16:50.582Z,16.20
2023-07-03T21:19:17.387Z,16.20
2023-07-03T21:21:44.085Z,16.20
2023-07-03T21:24:11.721Z,16.20
2023-07-03T21:26:38.490Z,16.20
2023-07-03T21:29:05.591Z,16.20
2023-07-03T21:31:35.415Z,16.20
2023-07-03T21:34:02.438Z,16.20
2023-07-03T21:36:30.484Z,16.20
2023-07-03T21:38:58.250Z,16.20
2023-07-03T21:41:29.468Z,16.20
2023-07-03T21:43:58.596Z,16.20
2023-07-03T21:46:26.690Z,16.20
2023-07-03T21:48:54.289Z,16.10
2023-07-03T21:51:21.028Z,16.10
2023-07-03T21:53:47.866Z,16.10
2023-07-03T21:56:19.475Z,16.10
2023-07-03T21:58:46.536Z,16.10
2023-07-03T22:01:18.273Z,16.10
2023-07-03T22:03:45.095Z,16.10
2023-07-03T22:06:11.829Z,16.10
2023-07-03T22:08:38.521Z,16.00
2023-07-03T22:11:05.303Z,16.00
2023-07-03T22:13:32.159Z,16.00
2023-07-03T22:15:59.687Z,16.00
2023-07-03T22:18:26.517Z,15.90
2023-07-03T22:20:53.237Z,15.90
2023-07-03T22:23:30.347Z,15.90
2023-07-03T22:25:58.551Z,15.80
2023-07-03T22:28:25.538Z,15.80
2023-07-03T22:30:52.341Z,15.70
2023-07-03T22:33:19.619Z,15.70
2023-07-03T22:35:46.520Z,15.70
2023-07-03T22:38:13.211Z,15.60
2023-07-03T22:40:41.606Z,15.60
2023-07-03T22:43:08.824Z,15.60
2023-07-03T22:45:35.601Z,15.60
2023-07-03T22:48:02.746Z,15.60
2023-07-03T22:50:29.518Z,15.60
2023-07-03T22:52:56.703Z,15.60
2023-07-03T22:55:23.562Z,15.60
2023-07-03T22:57:50.356Z,15.60
2023-07-03T23:00:18.129Z,15.60
2023-07-03T23:02:45.090Z,15.60
2023-07-03T23:05:12.181Z,15.60
2023-07-03T23:07:40.100Z,15.60
2023-07-03T23:10:07.605Z,15.50
2023-07-03T23:12:34.637Z,15.50
2023-07-03T23:15:01.417Z,15.50
2023-07-03T23:17:32.330Z,15.50
2023-07-03T23:19:59.820Z,15.50
2023-07-03T23:22:27.099Z,15.50
2023-07-03T23:24:54.867Z,15.40
2023-07-03T23:27:22.018Z,15.40
2023-07-03T23:29:49.157Z,15.40
2023-07-03T23:32:15.956Z,15.40
2023-07-03T23:34:42.847Z,15.40
2023-07-03T23:37:09.678Z,15.40
2023-07-03T23:39:39.797Z,15.40
2023-07-03T23:42:08.293Z,15.40
2023-07-03T23:44:35.940Z,15.40
2023-07-03T23:47:03.016Z,15.40
2023-07-03T23:49:30.356Z,15.30
2023-07-03T23:51:57.597Z,15.30
2023-07-03T23:54:24.694Z,15.30
2023-07-03T23:56:51.956Z,15.30
2023-07-03T23:59:22.352Z,15.30
